createdAt,value
2019-04-29T00:00:01.259Z,6.77
2019-04-29T00:02:30.292Z,6.76
2019-04-29T00:04:57.002Z,6.73
2019-04-29T00:07:23.852Z,6.72
2019-04-29T00:09:51.038Z,6.69
2019-04-29T00:12:18.844Z,6.67
2019-04-29T00:14:48.064Z,6.66
2019-04-29T00:17:17.158Z,6.63
2019-04-29T00:19:52.243Z,6.62
2019-04-29T00:22:19.349Z,6.60
2019-04-29T00:24:46.184Z,6.56
2019-04-29T00:27:13.568Z,6.54
2019-04-29T00:29:40.697Z,6.53
2019-04-29T00:32:07.927Z,6.49
2019-04-29T00:34:35.629Z,6.50
2019-04-29T00:37:07.252Z,6.47
2019-04-29T00:39:44.773Z,6.44
2019-04-29T00:42:28.853Z,6.40
2019-04-29T00:44:56.081Z,6.39
2019-04-29T00:47:23.831Z,6.35
2019-04-29T00:49:50.590Z,6.33
2019-04-29T00:52:18.207Z,6.30
2019-04-29T00:54:52.701Z,6.29
2019-04-29T00:57:20.407Z,6.27
2019-04-29T00:59:47.935Z,6.25
2019-04-29T01:02:15.933Z,6.22
2019-04-29T01:04:43.717Z,6.22
2019-04-29T01:07:11.396Z,6.19
2019-04-29T01:09:38.952Z,6.17
2019-04-29T01:12:06.472Z,6.17
2019-04-29T01:14:33.925Z,6.13
2019-04-29T01:17:01.967Z,6.13
2019-04-29T01:19:29.652Z,6.13
2019-04-29T01:21:57.052Z,6.11
2019-04-29T01:24:24.470Z,6.08
2019-04-29T01:26:56.937Z,6.09
2019-04-29T01:29:26.312Z,6.08
2019-04-29T01:31:53.121Z,6.08
2019-04-29T01:34:22.699Z,6.07
2019-04-29T01:36:49.648Z,6.06
2019-04-29T01:39:16.786Z,6.06
2019-04-29T01:41:45.821Z,6.06
2019-04-29T01:44:15.224Z,6.06
2019-04-29T01:46:42.633Z,6.06
2019-04-29T01:49:09.697Z,6.04
2019-04-29T01:51:37.464Z,6.04
2019-04-29T01:54:04.965Z,6.04
2019-04-29T01:56:32.219Z,6.05
2019-04-29T01:59:00.429Z,6.04
2019-04-29T02:01:28.115Z,6.03
2019-04-29T02:03:56.366Z,6.01
2019-04-29T02:06:24.292Z,6.03
2019-04-29T02:08:53.533Z,6.03
2019-04-29T02:11:21.296Z,6.02
2019-04-29T02:13:49.038Z,6.00
2019-04-29T02:16:17.142Z,6.01
2019-04-29T02:18:44.798Z,6.01
2019-04-29T02:21:12.436Z,6.01
2019-04-29T02:23:44.622Z,6.00
2019-04-29T02:26:12.590Z,5.99
2019-04-29T02:28:40.144Z,5.97
2019-04-29T02:31:25.640Z,5.97
2019-04-29T02:33:53.210Z,5.98
2019-04-29T02:36:21.039Z,5.96
2019-04-29T02:38:50.861Z,5.95
2019-04-29T02:41:35.109Z,5.94
2019-04-29T02:44:04.756Z,5.93
2019-04-29T02:46:31.674Z,5.91
2019-04-29T02:48:59.445Z,5.91
2019-04-29T02:51:43.573Z,5.91
2019-04-29T02:54:11.837Z,5.89
2019-04-29T02:56:40.346Z,5.86
2019-04-29T02:59:09.546Z,5.86
2019-04-29T03:01:38.791Z,5.84
2019-04-29T03:04:16.934Z,5.83
2019-04-29T03:06:44.356Z,5.79
2019-04-29T03:09:11.443Z,5.76
2019-04-29T03:11:38.895Z,5.74
2019-04-29T03:14:06.651Z,5.72
2019-04-29T03:16:33.590Z,5.70
2019-04-29T03:19:02.384Z,5.67
2019-04-29T03:21:31.595Z,3.98
2019-04-29T03:23:59.241Z,5.62
2019-04-29T03:26:26.394Z,5.23
2019-04-29T03:28:53.252Z,5.61
2019-04-29T03:31:20.897Z,5.59
2019-04-29T03:33:48.558Z,5.56
2019-04-29T03:36:16.033Z,5.55
2019-04-29T03:38:43.547Z,5.53
2019-04-29T03:41:11.080Z,5.51
2019-04-29T03:43:38.007Z,5.49
2019-04-29T03:46:05.691Z,5.47
2019-04-29T03:48:33.919Z,5.47
2019-04-29T03:51:01.845Z,5.47
2019-04-29T03:53:29.740Z,5.45
2019-04-29T03:55:57.313Z,5.45
2019-04-29T03:58:25.375Z,5.43
2019-04-29T04:00:57.127Z,5.43
2019-04-29T04:03:25.909Z,5.42
2019-04-29T04:06:07.646Z,5.41
2019-04-29T04:08:36.423Z,5.38
2019-04-29T04:11:03.598Z,5.36
2019-04-29T04:13:30.688Z,5.33
2019-04-29T04:15:57.954Z,5.31
2019-04-29T04:18:26.986Z,5.31
2019-04-29T04:20:54.453Z,5.29
2019-04-29T04:23:22.340Z,5.28
2019-04-29T04:25:50.236Z,5.28
2019-04-29T04:28:17.567Z,5.28
2019-04-29T04:30:45.140Z,5.30
2019-04-29T04:33:12.081Z,5.30
2019-04-29T04:35:39.228Z,5.33
2019-04-29T04:38:06.965Z,3.72
2019-04-29T04:40:48.987Z,5.36
2019-04-29T04:43:16.437Z,5.38
2019-04-29T04:45:43.341Z,5.43
2019-04-29T04:48:10.257Z,5.45
2019-04-29T04:50:38.688Z,5.49
2019-04-29T04:53:06.392Z,5.50
2019-04-29T04:55:35.636Z,5.53
2019-04-29T04:58:03.006Z,5.57
2019-04-29T05:00:31.914Z,5.58
2019-04-29T05:02:58.773Z,5.58
2019-04-29T05:05:26.828Z,5.62
2019-04-29T05:07:54.276Z,5.64
2019-04-29T05:10:21.526Z,5.69
2019-04-29T05:12:49.079Z,5.74
2019-04-29T05:15:16.369Z,5.80
2019-04-29T05:17:43.320Z,5.86
2019-04-29T05:20:10.308Z,5.90
2019-04-29T05:22:37.547Z,5.97
2019-04-29T05:25:05.937Z,6.01
2019-04-29T05:27:33.264Z,6.05
2019-04-29T05:30:00.876Z,6.10
2019-04-29T05:32:28.129Z,6.20
2019-04-29T05:34:57.452Z,6.28
2019-04-29T05:37:38.608Z,6.36
2019-04-29T05:40:05.741Z,6.42
2019-04-29T05:42:33.401Z,6.48
2019-04-29T05:45:08.566Z,6.50
2019-04-29T05:47:37.953Z,6.55
2019-04-29T05:50:19.495Z,6.59
2019-04-29T05:53:03.375Z,6.63
2019-04-29T05:55:31.112Z,6.68
2019-04-29T05:58:13.193Z,6.74
2019-04-29T06:00:41.810Z,6.82
2019-04-29T06:03:09.585Z,6.90
2019-04-29T06:05:37.437Z,7.01
2019-04-29T06:08:05.298Z,7.13
2019-04-29T06:10:32.169Z,7.24
2019-04-29T06:12:59.408Z,7.34
2019-04-29T06:15:27.390Z,7.47
2019-04-29T06:17:54.215Z,7.57
2019-04-29T06:20:22.818Z,7.66
2019-04-29T06:22:51.296Z,7.70
2019-04-29T06:25:18.536Z,7.78
2019-04-29T06:27:45.523Z,7.87
2019-04-29T06:30:12.348Z,7.97
2019-04-29T06:32:39.170Z,8.05
2019-04-29T06:35:10.536Z,8.17
2019-04-29T06:37:35.905Z,8.30
2019-04-29T06:40:03.983Z,8.43
2019-04-29T06:42:33.283Z,8.52
2019-04-29T06:44:59.763Z,8.63
2019-04-29T06:47:27.479Z,8.74
2019-04-29T06:49:54.839Z,8.54
2019-04-29T06:52:22.284Z,8.99
2019-04-29T06:54:50.049Z,9.12
2019-04-29T06:57:16.834Z,9.19
2019-04-29T06:59:47.678Z,9.28
2019-04-29T07:02:14.484Z,9.37
2019-04-29T07:04:41.886Z,9.48
2019-04-29T07:07:08.647Z,8.02
2019-04-29T07:09:35.808Z,9.68
2019-04-29T07:12:03.158Z,9.76
2019-04-29T07:14:33.258Z,9.81
2019-04-29T07:17:00.888Z,9.84
2019-04-29T07:19:29.334Z,9.51
2019-04-29T07:21:56.814Z,9.83
2019-04-29T07:24:23.848Z,9.88
2019-04-29T07:26:50.645Z,9.91
2019-04-29T07:29:18.611Z,9.98
2019-04-29T07:31:46.683Z,10.08
2019-04-29T07:34:14.097Z,10.16
2019-04-29T07:36:41.384Z,10.18
2019-04-29T07:39:09.103Z,10.21
2019-04-29T07:41:36.054Z,10.21
2019-04-29T07:44:02.967Z,10.22
2019-04-29T07:46:56.324Z,10.16
2019-04-29T07:49:16.562Z,8.70
2019-04-29T07:51:41.394Z,10.18
2019-04-29T07:54:11.170Z,10.20
2019-04-29T07:56:41.869Z,10.22
2019-04-29T07:59:06.416Z,10.23
2019-04-29T08:01:33.467Z,10.27
2019-04-29T08:04:00.817Z,10.35
2019-04-29T08:06:27.808Z,8.90
2019-04-29T08:08:58.895Z,10.41
2019-04-29T08:11:24.169Z,10.44
2019-04-29T08:13:51.138Z,10.51
2019-04-29T08:16:18.682Z,10.59
2019-04-29T08:18:49.465Z,9.28
2019-04-29T08:21:16.017Z,10.66
2019-04-29T08:23:43.687Z,10.70
2019-04-29T08:26:10.913Z,10.71
2019-04-29T08:28:38.147Z,10.75
2019-04-29T08:31:04.999Z,10.75
2019-04-29T08:33:32.253Z,10.75
2019-04-29T08:35:59.739Z,10.72
2019-04-29T08:38:26.533Z,10.74
2019-04-29T08:40:53.359Z,10.77
2019-04-29T08:43:37.480Z,10.83
2019-04-29T08:46:11.865Z,10.89
2019-04-29T08:48:39.332Z,10.89
2019-04-29T08:51:06.385Z,10.85
2019-04-29T08:53:33.520Z,10.80
2019-04-29T08:56:00.384Z,9.28
2019-04-29T08:58:27.896Z,10.73
2019-04-29T09:00:55.877Z,10.71
2019-04-29T09:03:24.421Z,10.73
2019-04-29T09:06:04.241Z,10.76
2019-04-29T09:08:20.581Z,10.79
2019-04-29T09:10:47.505Z,10.82
2019-04-29T09:13:14.423Z,10.81
2019-04-29T09:15:42.090Z,10.79
2019-04-29T09:18:11.176Z,10.75
2019-04-29T09:20:38.032Z,10.71
2019-04-29T09:23:08.191Z,10.67
2019-04-29T09:25:37.204Z,10.63
2019-04-29T09:28:05.830Z,10.62
2019-04-29T09:30:33.940Z,10.60
2019-04-29T09:33:00.676Z,10.57
2019-04-29T09:35:28.928Z,10.55
2019-04-29T09:37:58.379Z,8.99
2019-04-29T09:40:26.803Z,10.43
2019-04-29T09:42:56.989Z,10.41
2019-04-29T09:45:37.728Z,8.82
2019-04-29T09:48:05.070Z,10.33
2019-04-29T09:50:34.229Z,10.33
2019-04-29T09:53:00.995Z,10.30
2019-04-29T09:55:28.351Z,10.28
2019-04-29T09:57:56.061Z,10.24
2019-04-29T10:00:24.798Z,10.20
2019-04-29T10:03:03.020Z,10.19
2019-04-29T10:05:40.593Z,8.67
2019-04-29T10:08:07.695Z,10.19
2019-04-29T10:10:37.211Z,10.21
2019-04-29T10:13:03.651Z,10.25
2019-04-29T10:15:38.455Z,10.30
2019-04-29T10:18:10.079Z,10.33
2019-04-29T10:20:38.653Z,10.26
2019-04-29T10:23:05.982Z,10.26
2019-04-29T10:25:33.413Z,10.24
2019-04-29T10:28:01.064Z,10.21
2019-04-29T10:30:31.224Z,10.13
2019-04-29T10:32:58.980Z,10.06
2019-04-29T10:35:25.869Z,10.00
2019-04-29T10:37:53.495Z,9.95
2019-04-29T10:40:39.698Z,9.92
2019-04-29T10:43:15.390Z,8.66
2019-04-29T10:46:00.406Z,9.86
2019-04-29T10:48:32.174Z,9.84
2019-04-29T10:50:59.518Z,9.81
2019-04-29T10:53:28.807Z,9.80
2019-04-29T10:55:55.068Z,9.80
2019-04-29T10:58:29.648Z,9.77
2019-04-29T11:00:59.200Z,9.75
2019-04-29T11:03:26.184Z,9.76
2019-04-29T11:06:00.502Z,9.72
2019-04-29T11:08:43.098Z,9.70
2019-04-29T11:11:22.198Z,9.68
2019-04-29T11:13:48.169Z,9.67
2019-04-29T11:16:10.260Z,9.64
2019-04-29T11:18:37.584Z,9.60
2019-04-29T11:21:08.707Z,9.57
2019-04-29T11:23:36.307Z,9.54
2019-04-29T11:26:05.288Z,9.56
2019-04-29T11:28:32.195Z,7.60
2019-04-29T11:31:00.619Z,9.56
2019-04-29T11:33:40.041Z,9.57
2019-04-29T11:36:11.945Z,9.26
2019-04-29T11:38:39.816Z,9.54
2019-04-29T11:41:06.661Z,9.55
2019-04-29T11:43:34.764Z,9.51
2019-04-29T11:46:01.889Z,9.47
2019-04-29T11:48:28.916Z,9.44
2019-04-29T11:51:06.316Z,9.39
2019-04-29T11:53:33.346Z,7.82
2019-04-29T11:56:00.532Z,9.35
2019-04-29T11:58:29.737Z,9.31
2019-04-29T12:01:08.473Z,9.30
2019-04-29T12:03:37.993Z,9.28
2019-04-29T12:06:06.939Z,8.26
2019-04-29T12:08:33.681Z,9.21
2019-04-29T12:11:07.182Z,9.14
2019-04-29T12:13:34.453Z,9.12
2019-04-29T12:16:03.182Z,9.10
2019-04-29T12:18:33.981Z,9.08
2019-04-29T12:21:05.259Z,9.06
2019-04-29T12:23:32.426Z,9.04
2019-04-29T12:26:03.050Z,7.40
2019-04-29T12:28:30.053Z,8.97
2019-04-29T12:31:15.639Z,8.96
2019-04-29T12:33:47.610Z,8.97
2019-04-29T12:36:16.428Z,8.97
2019-04-29T12:38:49.535Z,7.40
2019-04-29T12:41:20.970Z,8.95
2019-04-29T12:44:01.393Z,8.95
2019-04-29T12:46:42.301Z,8.95
2019-04-29T12:49:13.583Z,8.94
2019-04-29T12:51:38.442Z,7.35
2019-04-29T12:54:05.184Z,8.97
2019-04-29T12:56:34.487Z,8.95
2019-04-29T12:59:02.057Z,7.37
2019-04-29T13:01:50.771Z,8.91
2019-04-29T13:04:22.328Z,8.91
2019-04-29T13:07:07.942Z,7.27
2019-04-29T13:09:39.676Z,8.89
2019-04-29T13:12:18.994Z,7.35
2019-04-29T13:14:39.094Z,8.89
2019-04-29T13:17:14.992Z,7.32
2019-04-29T13:20:00.657Z,8.85
2019-04-29T13:22:17.127Z,8.85
2019-04-29T13:24:44.436Z,8.86
2019-04-29T13:27:16.255Z,8.91
2019-04-29T13:29:40.464Z,8.90
2019-04-29T13:32:07.605Z,8.90
2019-04-29T13:34:36.935Z,7.31
2019-04-29T13:37:08.205Z,8.87
2019-04-29T13:39:39.761Z,7.38
2019-04-29T13:42:02.982Z,8.86
2019-04-29T13:44:30.815Z,8.81
2019-04-29T13:47:16.305Z,8.79
2019-04-29T13:49:49.078Z,8.75
2019-04-29T13:52:14.676Z,8.76
2019-04-29T13:54:44.964Z,8.79
2019-04-29T13:57:15.790Z,6.87
2019-04-29T13:59:50.352Z,7.10
2019-04-29T14:02:36.263Z,8.75
2019-04-29T14:05:05.152Z,8.76
2019-04-29T14:07:32.927Z,8.76
2019-04-29T14:10:00.490Z,8.76
2019-04-29T14:12:48.424Z,8.78
2019-04-29T14:14:58.463Z,8.77
2019-04-29T14:17:26.884Z,8.76
2019-04-29T14:19:57.037Z,8.79
2019-04-29T14:22:25.013Z,8.79
2019-04-29T14:24:51.912Z,8.80
2019-04-29T14:27:25.198Z,8.83
2019-04-29T14:29:47.746Z,8.86
2019-04-29T14:32:18.096Z,8.87
2019-04-29T14:34:54.044Z,8.88
2019-04-29T14:37:25.004Z,8.85
2019-04-29T14:39:49.371Z,8.87
2019-04-29T14:42:31.900Z,8.89
2019-04-29T14:45:06.864Z,8.92
2019-04-29T14:47:35.610Z,8.92
2019-04-29T14:50:10.588Z,8.94
2019-04-29T14:52:38.655Z,8.96
2019-04-29T14:55:06.326Z,8.99
2019-04-29T14:57:33.160Z,9.05
2019-04-29T15:00:00.200Z,9.10
2019-04-29T15:02:27.781Z,9.11
2019-04-29T15:04:54.694Z,9.14
2019-04-29T15:07:21.599Z,9.14
2019-04-29T15:09:55.828Z,9.15
2019-04-29T15:12:26.228Z,9.17
2019-04-29T15:14:59.221Z,9.22
2019-04-29T15:17:46.762Z,9.22
2019-04-29T15:20:29.693Z,7.66
2019-04-29T15:22:53.579Z,9.25
2019-04-29T15:25:22.449Z,9.27
2019-04-29T15:27:49.449Z,7.79
2019-04-29T15:30:17.072Z,9.30
2019-04-29T15:32:44.147Z,9.34
2019-04-29T15:35:11.289Z,9.37
2019-04-29T15:37:38.036Z,9.44
2019-04-29T15:40:06.483Z,9.48
2019-04-29T15:42:33.393Z,9.50
2019-04-29T15:45:00.211Z,9.50
2019-04-29T15:47:31.173Z,9.54
2019-04-29T15:50:00.841Z,9.53
2019-04-29T15:52:26.015Z,9.55
2019-04-29T15:54:53.545Z,9.57
2019-04-29T15:57:20.780Z,9.59
2019-04-29T15:59:49.290Z,9.61
2019-04-29T16:02:16.669Z,9.61
2019-04-29T16:05:04.731Z,9.62
2019-04-29T16:07:51.594Z,9.60
2019-04-29T16:10:20.649Z,9.60
2019-04-29T16:12:55.515Z,9.60
2019-04-29T16:15:23.295Z,9.62
2019-04-29T16:17:50.976Z,9.62
2019-04-29T16:20:17.715Z,9.63
2019-04-29T16:22:44.691Z,9.63
2019-04-29T16:25:12.958Z,9.65
2019-04-29T16:27:41.636Z,9.65
2019-04-29T16:30:08.774Z,9.63
2019-04-29T16:32:39.591Z,9.64
2019-04-29T16:35:06.736Z,9.66
2019-04-29T16:37:33.577Z,9.66
2019-04-29T16:40:01.212Z,9.69
2019-04-29T16:42:33.688Z,9.70
2019-04-29T16:45:06.049Z,9.71
2019-04-29T16:47:29.607Z,9.72
2019-04-29T16:49:57.585Z,8.21
2019-04-29T16:52:25.563Z,9.75
2019-04-29T16:54:52.477Z,8.41
2019-04-29T16:57:19.337Z,9.77
2019-04-29T16:59:48.154Z,9.78
2019-04-29T17:02:19.359Z,9.79
2019-04-29T17:04:44.633Z,9.81
2019-04-29T17:07:13.992Z,9.82
2019-04-29T17:09:45.334Z,9.85
2019-04-29T17:12:12.338Z,9.86
2019-04-29T17:15:02.255Z,9.87
2019-04-29T17:17:13.125Z,9.89
2019-04-29T17:19:39.967Z,9.88
2019-04-29T17:22:25.021Z,9.91
2019-04-29T17:24:35.557Z,9.92
2019-04-29T17:27:04.307Z,9.97
2019-04-29T17:29:48.618Z,9.96
2019-04-29T17:32:19.900Z,9.96
2019-04-29T17:34:58.863Z,9.96
2019-04-29T17:37:18.106Z,9.93
2019-04-29T17:39:45.068Z,9.92
2019-04-29T17:42:12.338Z,9.90
2019-04-29T17:44:41.041Z,9.91
2019-04-29T17:47:11.486Z,9.91
2019-04-29T17:49:40.426Z,9.92
2019-04-29T17:52:09.416Z,9.89
2019-04-29T17:54:38.010Z,9.89
2019-04-29T17:57:25.688Z,9.91
2019-04-29T18:00:00.496Z,9.92
2019-04-29T18:02:40.858Z,9.93
2019-04-29T18:05:16.919Z,9.93
2019-04-29T18:07:52.104Z,9.94
2019-04-29T18:10:29.261Z,9.95
2019-04-29T18:12:54.987Z,9.95
2019-04-29T18:15:25.663Z,9.94
2019-04-29T18:17:52.740Z,9.96
2019-04-29T18:20:38.014Z,9.99
2019-04-29T18:23:23.325Z,9.93
2019-04-29T18:25:52.284Z,9.94
2019-04-29T18:28:19.333Z,9.95
2019-04-29T18:30:49.659Z,9.95
2019-04-29T18:33:19.040Z,9.94
2019-04-29T18:35:43.904Z,9.95
2019-04-29T18:38:12.084Z,9.98
2019-04-29T18:40:42.029Z,10.01
2019-04-29T18:43:08.602Z,10.00
2019-04-29T18:45:36.805Z,10.02
2019-04-29T18:48:04.238Z,10.02
2019-04-29T18:50:34.241Z,10.03
2019-04-29T18:52:59.879Z,10.05
2019-04-29T18:55:28.142Z,10.07
2019-04-29T18:57:58.207Z,10.06
2019-04-29T19:00:25.340Z,10.06
2019-04-29T19:02:58.359Z,10.07
2019-04-29T19:05:33.421Z,10.06
2019-04-29T19:08:11.298Z,10.05
2019-04-29T19:10:34.452Z,10.02
2019-04-29T19:13:00.452Z,10.01
2019-04-29T19:15:28.163Z,9.99
2019-04-29T19:18:01.129Z,9.98
2019-04-29T19:20:25.122Z,9.98
2019-04-29T19:23:05.007Z,9.98
2019-04-29T19:25:21.552Z,9.99
2019-04-29T19:27:48.350Z,9.99
2019-04-29T19:30:20.688Z,9.98
2019-04-29T19:32:46.337Z,9.99
2019-04-29T19:35:16.566Z,9.96
2019-04-29T19:37:42.104Z,9.96
2019-04-29T19:40:09.171Z,9.95
2019-04-29T19:42:39.703Z,9.95
2019-04-29T19:45:06.359Z,9.95
2019-04-29T19:47:36.051Z,9.95
2019-04-29T19:50:05.672Z,9.97
2019-04-29T19:52:32.742Z,9.98
2019-04-29T19:55:01.636Z,9.96
2019-04-29T19:57:28.210Z,9.97
2019-04-29T19:59:56.869Z,9.98
2019-04-29T20:02:25.926Z,9.98
2019-04-29T20:05:11.740Z,9.98
2019-04-29T20:07:42.073Z,9.97
2019-04-29T20:10:10.199Z,9.96
2019-04-29T20:12:37.337Z,9.97
2019-04-29T20:15:08.468Z,9.98
2019-04-29T20:17:37.556Z,9.95
2019-04-29T20:20:08.114Z,9.95
2019-04-29T20:22:37.458Z,9.93
2019-04-29T20:25:06.411Z,9.91
2019-04-29T20:27:35.630Z,9.90
2019-04-29T20:30:15.831Z,9.86
2019-04-29T20:32:32.551Z,9.86
2019-04-29T20:35:07.247Z,9.85
2019-04-29T20:37:32.589Z,9.82
2019-04-29T20:40:00.826Z,8.30
2019-04-29T20:42:28.340Z,9.80
2019-04-29T20:44:55.480Z,9.78
2019-04-29T20:47:26.123Z,9.76
2019-04-29T20:49:52.712Z,8.35
2019-04-29T20:52:30.601Z,9.75
2019-04-29T20:55:02.290Z,9.73
2019-04-29T20:57:27.794Z,9.69
2019-04-29T20:59:55.826Z,9.66
2019-04-29T21:02:31.273Z,9.62
2019-04-29T21:04:53.255Z,9.61
2019-04-29T21:07:23.920Z,9.60
2019-04-29T21:09:49.492Z,9.59
2019-04-29T21:12:22.106Z,9.59
2019-04-29T21:14:53.806Z,9.62
2019-04-29T21:17:30.698Z,9.62
2019-04-29T21:19:50.052Z,9.60
2019-04-29T21:22:22.044Z,9.57
2019-04-29T21:24:49.531Z,9.59
2019-04-29T21:27:15.970Z,9.58
2019-04-29T21:29:45.637Z,9.61
2019-04-29T21:32:13.395Z,9.60
2019-04-29T21:34:42.647Z,9.60
2019-04-29T21:37:15.393Z,9.61
2019-04-29T21:39:47.192Z,9.60
2019-04-29T21:42:22.651Z,9.58
2019-04-29T21:44:49.515Z,9.56
2019-04-29T21:47:17.009Z,9.54
2019-04-29T21:49:45.687Z,9.48
2019-04-29T21:52:12.499Z,9.45
2019-04-29T21:54:40.188Z,9.40
2019-04-29T21:57:07.848Z,9.37
2019-04-29T21:59:35.747Z,9.31
2019-04-29T22:02:06.685Z,9.27
2019-04-29T22:04:37.310Z,9.23
2019-04-29T22:07:04.781Z,9.19
2019-04-29T22:09:36.039Z,9.17
2019-04-29T22:12:02.718Z,9.13
2019-04-29T22:14:30.249Z,9.10
2019-04-29T22:16:57.218Z,9.07
2019-04-29T22:19:27.972Z,9.03
2019-04-29T22:22:00.181Z,9.01
2019-04-29T22:24:26.153Z,8.96
2019-04-29T22:26:56.427Z,8.94
2019-04-29T22:29:20.867Z,8.90
2019-04-29T22:31:47.717Z,8.86
2019-04-29T22:34:19.049Z,8.85
2019-04-29T22:36:45.405Z,8.83
2019-04-29T22:39:12.463Z,8.80
2019-04-29T22:41:43.891Z,8.78
2019-04-29T22:44:17.083Z,8.73
2019-04-29T22:46:44.754Z,8.70
2019-04-29T22:49:11.242Z,8.67
2019-04-29T22:51:38.082Z,8.64
2019-04-29T22:54:06.359Z,8.61
2019-04-29T22:56:35.967Z,8.58
2019-04-29T22:59:02.910Z,8.56
2019-04-29T23:01:31.085Z,8.53
2019-04-29T23:03:57.934Z,8.50
2019-04-29T23:06:26.017Z,8.47
2019-04-29T23:08:53.445Z,8.46
2019-04-29T23:11:21.354Z,8.44
2019-04-29T23:13:49.264Z,8.42
2019-04-29T23:16:16.242Z,8.40
2019-04-29T23:18:45.860Z,8.38
2019-04-29T23:21:36.075Z,8.36
2019-04-29T23:24:13.298Z,8.32
2019-04-29T23:26:42.301Z,8.28
2019-04-29T23:29:08.262Z,8.25
2019-04-29T23:31:36.985Z,8.23
2019-04-29T23:34:05.789Z,8.22
2019-04-29T23:36:33.780Z,8.20
2019-04-29T23:39:01.343Z,8.18
2019-04-29T23:41:33.145Z,8.16
2019-04-29T23:43:59.922Z,8.13
2019-04-29T23:46:29.668Z,8.10
2019-04-29T23:49:03.018Z,8.08
2019-04-29T23:51:32.843Z,8.06
2019-04-29T23:53:56.669Z,8.02
2019-04-29T23:56:25.855Z,7.97
2019-04-29T23:58:57.536Z,7.96
